Time;durP1;ratioP1;P1;durP2;ratioP2;P2;SDS_P1;SDS_P2;PMS_P1;PMS_P2;Temp;Humidity;BMP_temperature;BMP_pressure;BME280_temperature;BME280_humidity;BME280_pressure;Samples;Min_cycle;Max_cycle;Signal;HPM_P1;HPM_P2
2022/09/21 00:01:40;;;;;;;5.47;1.90;;;;;;;;;;5004655;28;20033;-83
2022/09/21 00:04:06;;;;;;;9.40;1.75;;;;;;;;;;5007149;28;20073;-83
2022/09/21 00:06:33;;;;;;;7.75;1.80;;;;;;;;;;5003580;28;20042;-83
2022/09/21 00:09:02;;;;;;;7.53;2.00;;;;;;;;;;5005542;28;20045;-83
2022/09/21 00:11:29;;;;;;;5.75;1.67;;;;;;;;;;5005936;28;20049;-83
2022/09/21 00:13:56;;;;;;;7.28;1.80;;;;;;;;;;5006578;28;20042;-83
2022/09/21 00:16:23;;;;;;;6.90;2.03;;;;;;;;;;5003920;28;20050;-83
2022/09/21 00:18:49;;;;;;;6.63;1.98;;;;;;;;;;5006362;28;20045;-83
2022/09/21 00:21:15;;;;;;;7.32;1.80;;;;;;;;;;5006078;28;20395;-83
2022/09/21 00:23:42;;;;;;;6.80;2.00;;;;;;;;;;5021574;28;20042;-83
2022/09/21 00:26:12;;;;;;;14.68;2.60;;;;;;;;;;5003079;28;20046;-83
2022/09/21 00:28:39;;;;;;;9.30;1.98;;;;;;;;;;5015040;28;20411;-83
2022/09/21 00:31:09;;;;;;;11.13;2.20;;;;;;;;;;5004396;28;20046;-83
2022/09/21 00:33:36;;;;;;;7.50;2.10;;;;;;;;;;5001808;28;20057;-83
2022/09/21 00:36:06;;;;;;;8.45;1.98;;;;;;;;;;5006791;28;20041;-83
2022/09/21 00:38:33;;;;;;;8.25;2.10;;;;;;;;;;5004203;28;20038;-83
2022/09/21 00:40:59;;;;;;;9.73;1.75;;;;;;;;;;5006740;28;20037;-83
2022/09/21 00:43:25;;;;;;;9.82;1.88;;;;;;;;;;5001684;28;20374;-83
2022/09/21 00:45:54;;;;;;;4.95;1.90;;;;;;;;;;5029527;28;20084;-83
2022/09/21 00:48:20;;;;;;;8.18;1.90;;;;;;;;;;5010412;28;20038;-83
2022/09/21 00:50:49;;;;;;;6.20;1.90;;;;;;;;;;5007631;28;20125;-83
2022/09/21 00:53:15;;;;;;;11.77;2.45;;;;;;;;;;5011708;28;20053;-83
2022/09/21 00:55:46;;;;;;;7.03;1.95;;;;;;;;;;5007995;28;20060;-83
2022/09/21 00:58:16;;;;;;;8.00;2.20;;;;;;;;;;5007037;28;20057;-83
2022/09/21 01:00:42;;;;;;;7.68;2.33;;;;;;;;;;5011085;28;20041;-82
2022/09/21 01:03:10;;;;;;;8.77;2.20;;;;;;;;;;5010601;28;20042;-83
2022/09/21 01:05:36;;;;;;;9.60;2.05;;;;;;;;;;5009863;28;20041;-82
2022/09/21 01:08:03;;;;;;;10.85;2.70;;;;;;;;;;5008325;28;20403;-82
2022/09/21 01:10:32;;;;;;;6.65;2.10;;;;;;;;;;5010050;28;20058;-82
2022/09/21 01:13:19;;;;;;;6.80;2.10;;;;;;;;;;4999335;28;20074;-82
2022/09/21 01:15:51;;;;;;;6.32;1.90;;;;;;;;;;5012060;28;20052;-82
2022/09/21 01:18:34;;;;;;;9.20;2.25;;;;;;;;;;5009320;28;20042;-82
2022/09/21 01:21:00;;;;;;;10.35;2.20;;;;;;;;;;5006203;28;20046;-82
2022/09/21 01:23:42;;;;;;;8.23;1.90;;;;;;;;;;5012161;28;20068;-82
2022/09/21 01:26:27;;;;;;;7.32;2.20;;;;;;;;;;5007204;28;20060;-82
2022/09/21 01:28:58;;;;;;;10.10;2.85;;;;;;;;;;5001523;28;20054;-83
2022/09/21 01:31:28;;;;;;;7.20;2.30;;;;;;;;;;5005721;28;20503;-83
2022/09/21 01:33:57;;;;;;;9.32;2.17;;;;;;;;;;5009247;28;20399;-82
2022/09/21 01:36:25;;;;;;;8.25;2.40;;;;;;;;;;5006590;28;20536;-83
2022/09/21 01:38:56;;;;;;;6.68;2.30;;;;;;;;;;5004091;28;20046;-82
2022/09/21 01:41:24;;;;;;;7.07;2.47;;;;;;;;;;4996130;28;20054;-82
2022/09/21 01:43:54;;;;;;;7.78;2.53;;;;;;;;;;5010499;28;20050;-82
2022/09/21 01:46:21;;;;;;;13.40;3.00;;;;;;;;;;5010223;28;20061;-83
2022/09/21 01:48:54;;;;;;;7.60;2.20;;;;;;;;;;5015494;28;20468;-82
2022/09/21 01:51:21;;;;;;;9.27;2.13;;;;;;;;;;5021993;28;20056;-82
2022/09/21 01:53:52;;;;;;;6.93;2.45;;;;;;;;;;5028122;28;20049;-82
2022/09/21 01:56:21;;;;;;;7.18;2.40;;;;;;;;;;5016871;28;20468;-82
2022/09/21 01:58:47;;;;;;;10.95;2.78;;;;;;;;;;5028897;28;20101;-82
2022/09/21 02:01:16;;;;;;;5.80;2.17;;;;;;;;;;5061022;28;20049;-82
2022/09/21 02:03:45;;;;;;;10.35;2.28;;;;;;;;;;5031099;28;20050;-82
2022/09/21 02:06:11;;;;;;;6.22;2.20;;;;;;;;;;5030158;28;20456;-82
2022/09/21 02:08:37;;;;;;;6.70;1.90;;;;;;;;;;5028205;28;20400;-82
2022/09/21 02:11:04;;;;;;;7.13;2.20;;;;;;;;;;5060139;28;20114;-81
2022/09/21 02:13:31;;;;;;;11.20;2.17;;;;;;;;;;5032614;28;20084;-82
2022/09/21 02:16:22;;;;;;;7.82;2.00;;;;;;;;;;5030962;28;20022;-82
2022/09/21 02:19:08;;;;;;;7.35;1.90;;;;;;;;;;5021689;28;20439;-82
2022/09/21 02:21:49;;;;;;;5.82;1.90;;;;;;;;;;5014503;28;20050;-82
2022/09/21 02:24:34;;;;;;;5.28;1.75;;;;;;;;;;5014765;28;20067;-82
2022/09/21 02:27:00;;;;;;;5.80;1.50;;;;;;;;;;5010701;28;20046;-82
2022/09/21 02:29:39;;;;;;;4.80;1.40;;;;;;;;;;5015168;28;20045;-82
2022/09/21 02:32:16;;;;;;;4.07;1.38;;;;;;;;;;5015038;28;20372;-82
2022/09/21 02:34:47;;;;;;;5.32;1.30;;;;;;;;;;5013462;28;20422;-82
2022/09/21 02:37:23;;;;;;;5.07;1.13;;;;;;;;;;5013237;28;20050;-82
2022/09/21 02:39:59;;;;;;;4.18;1.02;;;;;;;;;;5013648;28;20042;-82
2022/09/21 02:42:28;;;;;;;3.03;1.00;;;;;;;;;;5012776;28;20057;-82
2022/09/21 02:45:01;;;;;;;3.72;1.10;;;;;;;;;;5015906;28;20129;-82
2022/09/21 02:47:31;;;;;;;4.00;1.05;;;;;;;;;;5011472;28;20382;-82
2022/09/21 02:49:59;;;;;;;5.57;1.10;;;;;;;;;;5013471;28;20495;-82
2022/09/21 02:52:29;;;;;;;4.70;1.17;;;;;;;;;;5011906;28;20117;-82
2022/09/21 02:54:55;;;;;;;4.88;1.50;;;;;;;;;;5012439;28;20522;-82
2022/09/21 02:57:23;;;;;;;4.53;1.17;;;;;;;;;;5011366;28;20080;-82
2022/09/21 02:59:49;;;;;;;4.85;1.65;;;;;;;;;;5013125;28;20038;-82
2022/09/21 03:02:15;;;;;;;5.68;1.55;;;;;;;;;;5014921;28;20046;-82
2022/09/21 03:04:46;;;;;;;4.68;1.70;;;;;;;;;;5013502;28;20038;-82
2022/09/21 03:07:12;;;;;;;6.38;2.40;;;;;;;;;;5013202;28;20053;-82
2022/09/21 03:09:38;;;;;;;3.58;1.80;;;;;;;;;;5012611;28;20057;-82
2022/09/21 03:12:04;;;;;;;7.53;2.63;;;;;;;;;;5011552;28;20046;-82
2022/09/21 03:14:31;;;;;;;5.47;2.20;;;;;;;;;;5014037;28;20042;-82
2022/09/21 03:16:58;;;;;;;7.28;1.88;;;;;;;;;;5013237;28;20049;-82
2022/09/21 03:19:24;;;;;;;6.07;1.77;;;;;;;;;;5012117;28;20049;-82
2022/09/21 03:21:50;;;;;;;7.47;1.52;;;;;;;;;;5012046;28;20038;-82
2022/09/21 03:24:44;;;;;;;5.07;1.45;;;;;;;;;;5011279;28;20046;-82
2022/09/21 03:27:03;;;;;;;5.93;1.50;;;;;;;;;;5009794;28;20050;-82
2022/09/21 03:29:29;;;;;;;6.85;1.55;;;;;;;;;;5013068;28;20445;-82
2022/09/21 03:31:55;;;;;;;4.85;1.50;;;;;;;;;;5014221;28;20431;-82
2022/09/21 03:34:21;;;;;;;5.45;1.30;;;;;;;;;;5045962;28;20049;-82
2022/09/21 03:36:47;;;;;;;5.07;1.20;;;;;;;;;;4999089;28;20049;-82
2022/09/21 03:39:14;;;;;;;6.13;1.45;;;;;;;;;;5010561;28;20555;-82
2022/09/21 03:41:40;;;;;;;4.10;1.17;;;;;;;;;;5011044;28;20044;-82
2022/09/21 03:44:06;;;;;;;3.03;1.33;;;;;;;;;;5013519;28;20384;-82
2022/09/21 03:46:35;;;;;;;5.18;1.20;;;;;;;;;;5014164;28;20125;-82
2022/09/21 03:49:01;;;;;;;2.78;1.20;;;;;;;;;;5008313;28;20042;-82
2022/09/21 03:51:31;;;;;;;2.00;0.98;;;;;;;;;;5011881;28;20488;-82
2022/09/21 03:53:57;;;;;;;2.75;0.90;;;;;;;;;;5011637;28;20450;-82
2022/09/21 03:56:23;;;;;;;2.05;0.90;;;;;;;;;;5009522;28;20077;-82
2022/09/21 03:58:49;;;;;;;2.10;0.68;;;;;;;;;;5010197;28;20085;-82
2022/09/21 04:01:15;;;;;;;2.25;0.60;;;;;;;;;;5010616;28;20041;-82
2022/09/21 04:03:41;;;;;;;1.95;0.60;;;;;;;;;;5003327;28;20042;-82
2022/09/21 04:06:11;;;;;;;3.42;0.70;;;;;;;;;;5012454;28;20073;-82
2022/09/21 04:08:38;;;;;;;0.60;0.40;;;;;;;;;;5007443;28;20049;-82
2022/09/21 04:11:11;;;;;;;2.38;0.50;;;;;;;;;;5011963;28;20048;-82
2022/09/21 04:13:37;;;;;;;2.25;0.50;;;;;;;;;;5012085;28;20049;-82
2022/09/21 04:16:03;;;;;;;1.58;0.55;;;;;;;;;;5013494;28;20053;-81
2022/09/21 04:18:29;;;;;;;2.03;0.60;;;;;;;;;;5009606;28;20081;-81
2022/09/21 04:20:55;;;;;;;2.75;0.68;;;;;;;;;;5005714;28;20105;-81
2022/09/21 04:23:21;;;;;;;1.92;0.60;;;;;;;;;;5004324;28;20193;-81
2022/09/21 04:25:50;;;;;;;1.50;0.57;;;;;;;;;;5005911;28;20050;-81
2022/09/21 04:28:16;;;;;;;1.10;0.60;;;;;;;;;;5011290;28;20050;-81
2022/09/21 04:30:42;;;;;;;1.35;0.60;;;;;;;;;;5012987;28;20476;-81
2022/09/21 04:33:08;;;;;;;2.38;0.68;;;;;;;;;;5012108;28;20044;-81
2022/09/21 04:35:34;;;;;;;1.10;0.60;;;;;;;;;;5010543;28;20421;-81
2022/09/21 04:38:00;;;;;;;3.05;0.63;;;;;;;;;;5011213;28;20037;-82
2022/09/21 04:40:27;;;;;;;2.20;0.70;;;;;;;;;;5011812;28;20053;-81
2022/09/21 04:42:55;;;;;;;1.65;0.60;;;;;;;;;;5013081;28;20038;-81
2022/09/21 04:45:22;;;;;;;2.90;0.60;;;;;;;;;;5011570;28;20069;-81
2022/09/21 04:47:48;;;;;;;2.72;0.60;;;;;;;;;;5011846;28;20054;-81
2022/09/21 04:50:15;;;;;;;2.45;0.52;;;;;;;;;;5007425;28;20041;-81
2022/09/21 04:52:41;;;;;;;0.80;0.50;;;;;;;;;;5012888;28;20042;-81
2022/09/21 04:55:07;;;;;;;1.20;0.43;;;;;;;;;;5012590;28;20054;-81
2022/09/21 04:57:34;;;;;;;3.03;0.50;;;;;;;;;;5011983;28;20533;-81
2022/09/21 05:00:00;;;;;;;0.80;0.40;;;;;;;;;;5010959;28;20046;-81
2022/09/21 05:02:26;;;;;;;0.98;0.57;;;;;;;;;;5011310;28;20046;-81
2022/09/21 05:04:52;;;;;;;1.85;0.60;;;;;;;;;;5010653;28;20057;-81
2022/09/21 05:07:18;;;;;;;2.15;0.70;;;;;;;;;;5009362;28;20075;-81
2022/09/21 05:10:03;;;;;;;2.78;0.80;;;;;;;;;;5013011;28;20086;-81
2022/09/21 05:12:38;;;;;;;3.05;0.70;;;;;;;;;;5009196;28;20080;-81
2022/09/21 05:15:04;;;;;;;4.95;0.90;;;;;;;;;;4999193;28;20488;-81
2022/09/21 05:17:30;;;;;;;4.85;1.00;;;;;;;;;;4994902;28;20076;-81
2022/09/21 05:19:56;;;;;;;3.65;0.80;;;;;;;;;;5011627;28;20125;-81
2022/09/21 05:22:22;;;;;;;3.53;1.80;;;;;;;;;;5010182;28;20122;-82
2022/09/21 05:24:48;;;;;;;2.38;0.90;;;;;;;;;;5012641;28;20048;-82
2022/09/21 05:27:14;;;;;;;3.95;0.93;;;;;;;;;;4997606;28;20469;-83
2022/09/21 05:29:40;;;;;;;5.10;1.20;;;;;;;;;;5014185;28;20518;-82
2022/09/21 05:32:18;;;;;;;3.72;1.00;;;;;;;;;;5019201;28;20050;-81
2022/09/21 05:35:22;;;;;;;6.97;1.20;;;;;;;;;;5023687;28;20065;-81
2022/09/21 05:38:07;;;;;;;2.95;0.93;;;;;;;;;;5006693;28;20042;-81
2022/09/21 05:40:33;;;;;;;1.60;0.82;;;;;;;;;;4993371;28;21403;-82
2022/09/21 05:43:00;;;;;;;3.33;1.00;;;;;;;;;;5000780;28;20117;-82
2022/09/21 05:45:27;;;;;;;3.22;1.20;;;;;;;;;;5001546;28;20091;-84
2022/09/21 05:47:53;;;;;;;3.78;1.00;;;;;;;;;;5007172;28;20054;-83
2022/09/21 05:50:19;;;;;;;2.20;0.98;;;;;;;;;;4999020;28;20542;-82
2022/09/21 05:53:04;;;;;;;2.13;0.82;;;;;;;;;;4993568;28;20086;-82
2022/09/21 05:55:56;;;;;;;4.07;1.10;;;;;;;;;;5010610;28;20069;-82
2022/09/21 05:58:45;;;;;;;3.47;1.30;;;;;;;;;;4991502;28;20238;-81
2022/09/21 06:01:11;;;;;;;4.07;1.30;;;;;;;;;;4991320;28;20133;-81
2022/09/21 06:03:37;;;;;;;5.78;1.10;;;;;;;;;;4990498;28;20117;-82
2022/09/21 06:06:04;;;;;;;3.65;1.10;;;;;;;;;;4991964;28;20419;-82
2022/09/21 06:08:30;;;;;;;6.68;1.00;;;;;;;;;;5003455;28;20054;-81
2022/09/21 06:10:56;;;;;;;5.78;1.15;;;;;;;;;;5014448;28;20081;-81
2022/09/21 06:13:22;;;;;;;2.60;0.90;;;;;;;;;;5010859;28;20566;-81
2022/09/21 06:15:48;;;;;;;2.22;1.00;;;;;;;;;;5010181;28;20061;-82
2022/09/21 06:18:14;;;;;;;5.15;1.08;;;;;;;;;;5015113;28;20053;-83
2022/09/21 06:20:40;;;;;;;3.30;0.85;;;;;;;;;;5013338;28;20510;-82
2022/09/21 06:23:08;;;;;;;2.90;1.00;;;;;;;;;;5013112;28;20143;-82
2022/09/21 06:25:34;;;;;;;4.93;0.93;;;;;;;;;;5017595;28;20412;-81
2022/09/21 06:28:08;;;;;;;1.88;0.82;;;;;;;;;;5004027;28;20427;-81
2022/09/21 06:30:35;;;;;;;7.25;0.90;;;;;;;;;;5014940;28;20514;-81
2022/09/21 06:33:02;;;;;;;2.40;0.90;;;;;;;;;;5014573;28;20061;-82
2022/09/21 06:35:28;;;;;;;4.97;0.90;;;;;;;;;;5015881;28;20049;-80
2022/09/21 06:37:58;;;;;;;2.78;0.80;;;;;;;;;;5035084;28;20045;-83
2022/09/21 06:40:24;;;;;;;2.70;0.80;;;;;;;;;;5034924;28;20045;-83
2022/09/21 06:42:54;;;;;;;1.83;0.70;;;;;;;;;;5018598;28;20064;-83
2022/09/21 06:45:24;;;;;;;2.50;0.85;;;;;;;;;;5010819;28;20522;-83
2022/09/21 06:47:50;;;;;;;2.88;0.85;;;;;;;;;;5008488;28;20053;-83
2022/09/21 06:50:16;;;;;;;3.47;0.80;;;;;;;;;;5013932;28;20046;-83
2022/09/21 06:52:42;;;;;;;2.15;0.60;;;;;;;;;;5013411;28;20046;-84
2022/09/21 06:55:09;;;;;;;2.72;0.77;;;;;;;;;;5015349;28;20042;-84
2022/09/21 06:57:36;;;;;;;2.65;0.90;;;;;;;;;;5013763;28;20065;-85
2022/09/21 07:00:03;;;;;;;4.68;0.98;;;;;;;;;;5015240;28;20108;-85
2022/09/21 07:02:29;;;;;;;4.40;0.95;;;;;;;;;;5017835;28;20390;-85
2022/09/21 07:04:55;;;;;;;2.90;0.90;;;;;;;;;;5018081;28;20069;-85
2022/09/21 07:07:21;;;;;;;2.83;1.10;;;;;;;;;;5012326;28;20108;-84
2022/09/21 07:09:47;;;;;;;2.88;1.00;;;;;;;;;;5013988;28;20503;-85
2022/09/21 07:12:15;;;;;;;3.08;1.00;;;;;;;;;;5013894;28;20180;-85
2022/09/21 07:14:44;;;;;;;3.22;1.02;;;;;;;;;;5013080;28;20453;-84
2022/09/21 07:17:10;;;;;;;6.53;1.33;;;;;;;;;;5000427;28;20050;-85
2022/09/21 07:19:36;;;;;;;5.47;1.30;;;;;;;;;;5013949;28;20053;-84
2022/09/21 07:22:02;;;;;;;4.32;1.25;;;;;;;;;;5011892;28;20176;-84
2022/09/21 07:24:28;;;;;;;5.10;1.42;;;;;;;;;;4997753;28;20054;-84
2022/09/21 07:26:54;;;;;;;7.00;1.60;;;;;;;;;;5022734;28;20504;-84
2022/09/21 07:29:20;;;;;;;4.05;1.30;;;;;;;;;;5012995;28;20129;-84
2022/09/21 07:31:47;;;;;;;8.57;1.40;;;;;;;;;;5014003;28;20168;-84
2022/09/21 07:34:13;;;;;;;6.82;1.23;;;;;;;;;;5010919;28;20057;-85
2022/09/21 07:36:39;;;;;;;3.92;1.15;;;;;;;;;;5010279;28;20443;-84
2022/09/21 07:39:06;;;;;;;5.28;1.35;;;;;;;;;;5013601;28;20042;-84
2022/09/21 07:41:35;;;;;;;7.60;1.80;;;;;;;;;;5037259;28;20399;-84
2022/09/21 07:44:01;;;;;;;8.35;1.80;;;;;;;;;;5012067;28;20092;-84
2022/09/21 07:46:27;;;;;;;6.97;1.20;;;;;;;;;;5013719;28;20121;-83
2022/09/21 07:48:54;;;;;;;4.93;1.17;;;;;;;;;;5043364;28;20056;-83
2022/09/21 07:51:20;;;;;;;4.90;1.08;;;;;;;;;;5012133;28;20073;-83
2022/09/21 07:53:46;;;;;;;9.30;1.40;;;;;;;;;;5011458;28;20403;-82
2022/09/21 07:56:13;;;;;;;5.72;1.20;;;;;;;;;;4998330;28;20061;-82
2022/09/21 08:01:25;;;;;;;7.03;1.20;;;;;;;;;;5006446;28;20053;-83
2022/09/21 08:03:52;;;;;;;6.68;1.25;;;;;;;;;;4999342;28;20066;-82
2022/09/21 08:06:19;;;;;;;6.88;1.10;;;;;;;;;;4999389;28;20126;-84
2022/09/21 08:08:49;;;;;;;5.82;1.40;;;;;;;;;;5000390;28;20420;-82
2022/09/21 08:11:16;;;;;;;7.53;1.30;;;;;;;;;;5012001;28;20045;-83
2022/09/21 08:13:42;;;;;;;7.70;1.58;;;;;;;;;;5016038;28;20042;-84
2022/09/21 08:16:08;;;;;;;10.35;1.63;;;;;;;;;;5011116;28;20475;-83
2022/09/21 08:18:38;;;;;;;8.95;1.50;;;;;;;;;;5008423;28;20042;-83
2022/09/21 08:21:05;;;;;;;7.93;1.42;;;;;;;;;;5012869;28;20045;-86
2022/09/21 08:23:31;;;;;;;7.55;1.48;;;;;;;;;;5007020;28;20473;-81
2022/09/21 08:25:59;;;;;;;10.25;1.83;;;;;;;;;;5004560;28;20144;-83
2022/09/21 08:28:25;;;;;;;7.78;1.17;;;;;;;;;;5020317;28;20535;-81
2022/09/21 08:30:51;;;;;;;9.88;1.50;;;;;;;;;;4998949;28;20049;-81
2022/09/21 08:33:17;;;;;;;6.00;1.35;;;;;;;;;;5007549;28;20045;-81
2022/09/21 08:35:51;;;;;;;8.70;1.20;;;;;;;;;;5044036;28;20388;-81
2022/09/21 08:38:17;;;;;;;7.93;1.50;;;;;;;;;;5012437;28;20041;-81
2022/09/21 08:40:43;;;;;;;11.23;1.42;;;;;;;;;;5005510;28;20050;-81
2022/09/21 08:43:14;;;;;;;9.00;1.45;;;;;;;;;;5003991;28;20046;-81
2022/09/21 08:45:43;;;;;;;12.55;1.70;;;;;;;;;;5007944;28;20045;-81
2022/09/21 08:48:14;;;;;;;7.97;1.80;;;;;;;;;;5006771;28;20041;-81
2022/09/21 08:50:54;;;;;;;9.43;1.77;;;;;;;;;;5006557;28;20445;-81
2022/09/21 08:53:41;;;;;;;8.75;1.48;;;;;;;;;;5009283;28;20045;-81
2022/09/21 08:56:10;;;;;;;8.55;1.27;;;;;;;;;;5011393;28;20121;-81
2022/09/21 08:58:39;;;;;;;8.85;1.38;;;;;;;;;;4992811;28;20507;-81
2022/09/21 09:01:24;;;;;;;11.50;1.58;;;;;;;;;;4988708;28;20117;-81
2022/09/21 09:03:59;;;;;;;8.02;1.40;;;;;;;;;;5010646;28;20049;-81
2022/09/21 09:06:25;;;;;;;9.82;1.63;;;;;;;;;;5010426;28;20115;-81
2022/09/21 09:08:55;;;;;;;10.60;1.65;;;;;;;;;;4994342;28;20093;-80
2022/09/21 09:11:21;;;;;;;10.13;1.05;;;;;;;;;;5014017;28;20415;-82
2022/09/21 09:13:50;;;;;;;6.68;1.33;;;;;;;;;;5014844;28;20034;-83
2022/09/21 09:16:22;;;;;;;10.93;1.58;;;;;;;;;;5014779;28;20046;-83
2022/09/21 09:18:52;;;;;;;10.85;1.30;;;;;;;;;;5013487;28;20048;-82
2022/09/21 09:21:18;;;;;;;7.93;1.48;;;;;;;;;;5009258;28;20605;-82
2022/09/21 09:24:03;;;;;;;8.05;1.30;;;;;;;;;;5015313;28;20466;-82
2022/09/21 09:26:32;;;;;;;7.03;1.13;;;;;;;;;;5012845;28;20049;-82
2022/09/21 09:29:00;;;;;;;11.10;1.73;;;;;;;;;;5015102;28;20049;-81
2022/09/21 09:31:44;;;;;;;8.60;1.33;;;;;;;;;;5006885;28;20148;-82
2022/09/21 09:34:10;;;;;;;6.18;1.05;;;;;;;;;;4998786;28;20093;-81
2022/09/21 09:36:41;;;;;;;10.20;1.13;;;;;;;;;;5015528;28;20053;-84
2022/09/21 09:39:12;;;;;;;8.27;1.30;;;;;;;;;;5022408;28;20113;-81
2022/09/21 09:41:51;;;;;;;7.53;1.20;;;;;;;;;;5017328;28;20407;-81
2022/09/21 09:44:20;;;;;;;8.45;1.40;;;;;;;;;;5024778;28;20118;-82
2022/09/21 09:47:10;;;;;;;7.32;1.25;;;;;;;;;;5021021;28;20042;-82
2022/09/21 09:49:36;;;;;;;10.98;1.30;;;;;;;;;;5007331;28;20080;-82
2022/09/21 09:52:02;;;;;;;8.60;1.30;;;;;;;;;;5002147;28;20519;-82
2022/09/21 09:54:35;;;;;;;8.02;1.10;;;;;;;;;;5024257;28;20077;-82
2022/09/21 09:57:03;;;;;;;7.78;0.98;;;;;;;;;;5014790;28;20056;-83
2022/09/21 09:59:35;;;;;;;7.53;1.08;;;;;;;;;;5011816;28;20515;-83
2022/09/21 10:02:06;;;;;;;6.43;1.30;;;;;;;;;;5014810;28;20046;-83
2022/09/21 10:04:36;;;;;;;8.85;1.23;;;;;;;;;;5005850;28;20049;-83
2022/09/21 10:07:02;;;;;;;7.68;1.40;;;;;;;;;;5015215;28;20256;-82
2022/09/21 10:09:35;;;;;;;9.52;1.17;;;;;;;;;;5013970;28;20132;-83
2022/09/21 10:12:03;;;;;;;8.30;1.52;;;;;;;;;;5016006;28;20483;-83
2022/09/21 10:14:32;;;;;;;7.20;1.13;;;;;;;;;;5010008;28;20503;-82
2022/09/21 10:17:04;;;;;;;7.13;1.23;;;;;;;;;;5011286;28;20045;-83
2022/09/21 10:19:31;;;;;;;7.60;1.00;;;;;;;;;;5012625;28;20046;-83
2022/09/21 10:22:01;;;;;;;7.00;1.42;;;;;;;;;;5009952;28;20049;-83
2022/09/21 10:24:29;;;;;;;9.90;1.20;;;;;;;;;;5012784;28;20488;-83
2022/09/21 10:27:01;;;;;;;8.90;1.70;;;;;;;;;;5011703;28;20045;-83
2022/09/21 10:29:29;;;;;;;7.72;1.63;;;;;;;;;;4997571;28;20150;-83
2022/09/21 10:31:57;;;;;;;9.07;1.90;;;;;;;;;;5011566;28;20048;-84
2022/09/21 10:34:23;;;;;;;8.88;1.77;;;;;;;;;;5012022;28;20060;-84
2022/09/21 10:36:51;;;;;;;11.00;1.50;;;;;;;;;;5012687;28;20053;-84
2022/09/21 10:39:17;;;;;;;6.88;1.30;;;;;;;;;;5013955;28;20034;-83
2022/09/21 10:41:47;;;;;;;8.65;0.95;;;;;;;;;;5043253;28;20491;-84
2022/09/21 10:44:15;;;;;;;6.95;1.13;;;;;;;;;;5013046;28;20495;-83
2022/09/21 10:46:41;;;;;;;7.55;1.52;;;;;;;;;;5013890;28;20084;-83
2022/09/21 10:49:15;;;;;;;6.97;0.90;;;;;;;;;;5012151;28;20073;-82
2022/09/21 10:51:43;;;;;;;10.80;1.40;;;;;;;;;;5013492;28;20068;-81
2022/09/21 10:54:10;;;;;;;6.10;1.20;;;;;;;;;;5011875;28;20038;-83
2022/09/21 10:56:36;;;;;;;8.93;1.23;;;;;;;;;;5009833;28;20049;-83
2022/09/21 10:59:10;;;;;;;6.70;1.10;;;;;;;;;;5009271;28;20053;-82
2022/09/21 11:01:36;;;;;;;6.00;1.00;;;;;;;;;;5013459;28;20049;-85
2022/09/21 11:04:08;;;;;;;7.05;1.10;;;;;;;;;;5012495;28;20052;-83
2022/09/21 11:06:40;;;;;;;6.85;1.00;;;;;;;;;;5002640;28;20100;-83
2022/09/21 11:09:08;;;;;;;7.93;1.30;;;;;;;;;;5003998;28;20184;-82
2022/09/21 11:11:39;;;;;;;6.35;1.10;;;;;;;;;;5040832;28;20050;-83
2022/09/21 11:14:05;;;;;;;7.28;1.15;;;;;;;;;;5009820;28;20699;-83
2022/09/21 11:16:34;;;;;;;7.93;0.98;;;;;;;;;;5026516;28;20062;-83
2022/09/21 11:19:09;;;;;;;6.22;1.00;;;;;;;;;;5004107;28;20045;-82
2022/09/21 11:21:41;;;;;;;6.20;0.90;;;;;;;;;;5012523;28;20061;-82
2022/09/21 11:24:10;;;;;;;7.00;0.93;;;;;;;;;;5029191;28;20119;-83
2022/09/21 11:26:43;;;;;;;8.70;0.90;;;;;;;;;;5013490;28;20125;-84
2022/09/21 11:29:19;;;;;;;6.53;0.90;;;;;;;;;;5012035;28;20049;-83
2022/09/21 11:32:01;;;;;;;8.70;1.20;;;;;;;;;;5013603;28;20053;-85
2022/09/21 11:34:43;;;;;;;7.32;1.00;;;;;;;;;;5013400;28;20050;-82
2022/09/21 11:37:12;;;;;;;14.05;1.60;;;;;;;;;;5014173;28;20126;-83
2022/09/21 11:39:57;;;;;;;10.02;1.05;;;;;;;;;;5012396;28;20104;-82
2022/09/21 11:42:38;;;;;;;6.88;1.00;;;;;;;;;;4998662;28;20054;-85
2022/09/21 11:45:04;;;;;;;;;;;;;;;;;;5013503;28;20053;-85
2022/09/21 11:47:49;;;;;;;8.18;1.52;;;;;;;;;;5012189;28;19925;-86
2022/09/21 11:50:21;;;;;;;7.15;1.00;;;;;;;;;;5013167;28;20500;-86
2022/09/21 11:52:57;;;;;;;5.93;0.88;;;;;;;;;;5038213;28;20053;-86
2022/09/21 11:55:45;;;;;;;5.78;0.90;;;;;;;;;;5016169;28;20049;-85
2022/09/21 11:58:17;;;;;;;10.10;1.27;;;;;;;;;;5003365;28;20095;-86
2022/09/21 12:00:58;;;;;;;5.82;0.93;;;;;;;;;;5012060;28;20060;-84
2022/09/21 12:03:24;;;;;;;;;;;;;;;;;;5006941;28;20496;-84
2022/09/21 12:05:50;;;;;;;7.57;1.00;;;;;;;;;;5016746;28;19964;-82
2022/09/21 12:08:22;;;;;;;6.35;1.10;;;;;;;;;;5014228;28;20057;-82
2022/09/21 12:10:48;;;;;;;4.85;0.80;;;;;;;;;;5004906;28;20049;-84
2022/09/21 12:13:27;;;;;;;8.10;1.20;;;;;;;;;;4999256;28;20054;-83
2022/09/21 12:15:54;;;;;;;7.03;1.10;;;;;;;;;;5010164;28;20046;-85
2022/09/21 12:18:26;;;;;;;7.75;1.50;;;;;;;;;;5024980;28;20049;-84
2022/09/21 12:20:55;;;;;;;6.45;1.23;;;;;;;;;;5005981;28;21602;-82
2022/09/21 12:23:26;;;;;;;4.50;0.73;;;;;;;;;;5011418;28;20076;-84
2022/09/21 12:25:56;;;;;;;5.05;0.88;;;;;;;;;;5012555;28;20488;-83
2022/09/21 12:28:25;;;;;;;6.65;1.10;;;;;;;;;;5011282;28;20037;-84
2022/09/21 12:30:56;;;;;;;6.22;1.10;;;;;;;;;;5010757;28;20165;-83
2022/09/21 12:33:32;;;;;;;6.20;1.05;;;;;;;;;;5010778;28;20046;-84
2022/09/21 12:36:02;;;;;;;6.10;0.88;;;;;;;;;;5016183;28;20444;-83
2022/09/21 12:38:35;;;;;;;7.80;1.00;;;;;;;;;;5017336;28;20046;-83
2022/09/21 12:41:20;;;;;;;5.40;0.95;;;;;;;;;;4996975;28;20121;-83
2022/09/21 12:43:46;;;;;;;5.47;0.82;;;;;;;;;;5002849;28;20048;-84
2022/09/21 12:46:15;;;;;;;3.90;0.95;;;;;;;;;;5022144;28;20030;-82
2022/09/21 12:48:43;;;;;;;5.30;1.00;;;;;;;;;;5028069;28;20038;-83
2022/09/21 12:51:23;;;;;;;8.00;1.27;;;;;;;;;;5017505;28;20081;-82
2022/09/21 12:53:50;;;;;;;5.80;1.02;;;;;;;;;;5011872;28;20100;-82
2022/09/21 12:56:36;;;;;;;6.30;1.05;;;;;;;;;;5009869;28;20056;-83
2022/09/21 12:59:23;;;;;;;4.43;0.90;;;;;;;;;;5002774;28;20403;-82
2022/09/21 13:01:52;;;;;;;5.85;1.20;;;;;;;;;;5002861;28;20436;-82
2022/09/21 13:04:25;;;;;;;7.25;0.88;;;;;;;;;;5001238;28;20100;-83
2022/09/21 13:07:11;;;;;;;7.05;1.00;;;;;;;;;;5002899;28;20042;-83
2022/09/21 13:09:40;;;;;;;6.10;1.10;;;;;;;;;;4997363;28;20038;-83
2022/09/21 13:12:07;;;;;;;7.35;1.20;;;;;;;;;;5000732;28;20026;-83
2022/09/21 13:14:35;;;;;;;7.03;1.10;;;;;;;;;;5003950;28;20038;-83
2022/09/21 13:17:02;;;;;;;7.65;1.45;;;;;;;;;;5044011;28;20046;-82
2022/09/21 13:19:30;;;;;;;8.13;1.10;;;;;;;;;;5008418;28;20041;-84
2022/09/21 13:22:14;;;;;;;5.55;1.10;;;;;;;;;;5004450;28;20095;-83
2022/09/21 13:24:41;;;;;;;6.20;0.82;;;;;;;;;;5009802;28;20602;-84
2022/09/21 13:27:08;;;;;;;4.63;0.80;;;;;;;;;;5020189;28;20038;-83
2022/09/21 13:29:35;;;;;;;5.30;0.88;;;;;;;;;;5012110;28;20057;-82
2022/09/21 13:32:02;;;;;;;5.72;0.90;;;;;;;;;;5010107;28;20078;-82
2022/09/21 13:34:33;;;;;;;3.90;0.68;;;;;;;;;;5010525;28;20046;-82
2022/09/21 13:37:00;;;;;;;;;;;;;;;;;;5009059;28;20057;-82
2022/09/21 13:39:26;;;;;;;4.80;0.80;;;;;;;;;;5014696;28;20032;-82
2022/09/21 13:41:56;;;;;;;5.53;1.00;;;;;;;;;;5039416;28;20057;-82
2022/09/21 13:44:42;;;;;;;6.40;0.90;;;;;;;;;;5010804;28;20052;-82
2022/09/21 13:47:10;;;;;;;4.55;0.85;;;;;;;;;;5010636;28;20089;-82
2022/09/21 13:49:49;;;;;;;4.55;0.90;;;;;;;;;;5010054;28;20084;-83
2022/09/21 13:52:16;;;;;;;4.45;0.80;;;;;;;;;;5011052;28;20049;-82
2022/09/21 13:54:45;;;;;;;5.75;0.75;;;;;;;;;;5010048;28;20108;-83
2022/09/21 13:57:17;;;;;;;4.25;0.68;;;;;;;;;;5009368;28;20042;-83
2022/09/21 13:59:45;;;;;;;4.55;0.75;;;;;;;;;;5012635;28;20057;-83
2022/09/21 14:02:27;;;;;;;6.05;1.13;;;;;;;;;;5013227;28;20045;-83
2022/09/21 14:04:53;;;;;;;4.70;1.02;;;;;;;;;;5011779;28;20034;-82
2022/09/21 14:07:19;;;;;;;5.32;1.00;;;;;;;;;;5013170;28;20034;-83
2022/09/21 14:09:57;;;;;;;6.07;1.00;;;;;;;;;;5013714;28;20054;-81
2022/09/21 14:12:25;;;;;;;6.43;1.15;;;;;;;;;;5013032;28;20046;-83
2022/09/21 14:15:11;;;;;;;7.03;1.10;;;;;;;;;;5012929;28;20088;-83
2022/09/21 14:17:38;;;;;;;6.80;1.00;;;;;;;;;;5010516;28;20041;-83
2022/09/21 14:20:06;;;;;;;5.65;0.98;;;;;;;;;;5012643;28;20057;-86
2022/09/21 14:22:33;;;;;;;6.25;0.98;;;;;;;;;;5010124;28;20133;-85
2022/09/21 14:25:24;;;;;;;6.38;1.30;;;;;;;;;;5013705;28;20042;-85
2022/09/21 14:27:51;;;;;;;5.93;1.08;;;;;;;;;;5013325;28;20431;-85
2022/09/21 14:30:21;;;;;;;7.70;1.00;;;;;;;;;;5015364;28;20396;-83
2022/09/21 14:32:59;;;;;;;8.23;1.13;;;;;;;;;;5013463;28;20050;-83
2022/09/21 14:35:37;;;;;;;6.75;1.10;;;;;;;;;;5011076;28;20062;-85
2022/09/21 14:38:14;;;;;;;5.25;0.93;;;;;;;;;;5018664;28;20045;-83
2022/09/21 14:40:45;;;;;;;6.82;0.90;;;;;;;;;;5012383;28;20053;-84
2022/09/21 14:43:14;;;;;;;5.38;0.85;;;;;;;;;;5012033;28;20113;-85
2022/09/21 14:46:00;;;;;;;5.10;0.80;;;;;;;;;;5013796;28;20089;-82
2022/09/21 14:48:30;;;;;;;5.72;0.80;;;;;;;;;;5008510;28;20090;-84
2022/09/21 14:51:03;;;;;;;5.60;1.10;;;;;;;;;;5018713;28;20053;-84
2022/09/21 14:53:38;;;;;;;6.00;1.25;;;;;;;;;;5009833;28;20107;-83
2022/09/21 14:56:22;;;;;;;9.02;1.30;;;;;;;;;;5012862;28;20046;-85
2022/09/21 14:58:50;;;;;;;6.80;1.10;;;;;;;;;;5014753;28;20491;-85
2022/09/21 15:01:26;;;;;;;6.25;1.00;;;;;;;;;;5014347;28;20042;-85
2022/09/21 15:04:01;;;;;;;5.32;0.93;;;;;;;;;;5038036;28;20159;-83